Time;durP1;ratioP1;P1;durP2;ratioP2;P2;SDS_P1;SDS_P2;PMS_P1;PMS_P2;Temp;Humidity;BMP_temperature;BMP_pressure;BME280_temperature;BME280_humidity;BME280_pressure;Samples;Min_cycle;Max_cycle;Signal;HPM_P1;HPM_P2
2022/12/10 00:02:33;;;;;;;;;43.50;36.75;;;;;3.96;69.34;100065.81;6150269;23;46003;-79
2022/12/10 00:04:59;;;;;;;;;47.75;37.50;;;;;3.98;69.47;100082.13;6150519;23;45520;-79
2022/12/10 00:07:24;;;;;;;;;47.50;42.00;;;;;3.95;69.50;100089.22;6152468;23;45450;-81
2022/12/10 00:09:49;;;;;;;;;56.75;46.25;;;;;3.89;69.67;100087.78;6125250;23;46299;-82
2022/12/10 00:12:15;;;;;;;;;46.75;40.75;;;;;3.77;69.89;100071.16;6150623;23;45580;-80
2022/12/10 00:18:02;;;;;;;;;49.25;43.50;;;;;3.67;69.91;100067.34;6150068;23;45527;-79
2022/12/10 00:20:28;;;;;;;;;46.00;40.00;;;;;3.67;70.38;100080.28;6149656;23;47272;-80
2022/12/10 00:22:53;;;;;;;;;55.75;43.00;;;;;3.70;70.21;100092.25;6149951;23;46062;-79
2022/12/10 00:25:18;;;;;;;;;54.25;44.00;;;;;3.62;70.27;100084.03;6123881;23;45634;-80
2022/12/10 00:27:44;;;;;;;;;51.75;44.00;;;;;3.68;70.11;100094.06;6151818;23;45465;-80
2022/12/10 00:30:09;;;;;;;;;52.00;45.25;;;;;3.69;70.12;100095.75;6151546;23;45656;-80
2022/12/10 00:32:35;;;;;;;;;62.75;44.75;;;;;3.67;70.02;100082.06;6150494;23;46828;-79
2022/12/10 00:35:01;;;;;;;;;51.50;39.50;;;;;3.76;70.10;100097.13;6122692;23;45740;-79
2022/12/10 00:37:26;;;;;;;;;58.00;45.25;;;;;3.76;70.24;100100.56;6151002;23;45799;-79
2022/12/10 00:39:51;;;;;;;;;56.00;43.75;;;;;3.75;70.29;100095.44;6126994;23;46393;-79
2022/12/10 00:42:17;;;;;;;;;60.75;43.75;;;;;3.79;70.41;100097.78;6151411;23;45815;-81
2022/12/10 00:48:04;;;;;;;;;62.00;46.25;;;;;3.75;70.32;100106.66;6150054;23;45681;-80
2022/12/10 00:50:29;;;;;;;;;60.50;47.75;;;;;3.71;70.71;100104.28;6149789;23;46545;-81
2022/12/10 00:52:54;;;;;;;;;52.25;45.00;;;;;3.68;70.60;100101.84;6149379;23;46351;-80
2022/12/10 00:55:20;;;;;;;;;61.75;46.00;;;;;3.60;70.80;100086.72;6122650;23;45718;-79
2022/12/10 00:57:45;;;;;;;;;55.50;46.25;;;;;3.68;70.98;100114.78;6150108;23;45689;-81
2022/12/10 01:03:32;;;;;;;;;57.50;48.75;;;;;3.63;71.05;100101.25;6150271;23;46129;-81
2022/12/10 01:06:06;;;;;;;;;57.25;43.75;;;;;3.62;70.87;100102.16;6150276;23;45559;-82
2022/12/10 01:08:31;;;;;;;;;54.50;45.00;;;;;3.55;71.23;100096.47;6149911;23;45805;-81
2022/12/10 01:10:57;;;;;;;;;62.50;48.75;;;;;3.53;71.06;100100.88;6149537;23;45771;-81
2022/12/10 01:13:22;;;;;;;;;51.00;45.25;;;;;3.44;70.95;100093.56;6148893;23;46342;-82
2022/12/10 01:15:48;;;;;;;;;49.75;40.50;;;;;3.50;71.24;100108.81;6148789;23;45510;-81
2022/12/10 01:18:13;;;;;;;;;58.75;44.25;;;;;3.43;71.42;100119.53;6149123;23;45732;-83
2022/12/10 01:20:39;;;;;;;;;54.00;44.50;;;;;3.45;71.39;100125.50;6123017;23;46484;-82
2022/12/10 01:23:04;;;;;;;;;56.00;44.25;;;;;3.44;71.67;100122.06;6122294;23;47152;-82
2022/12/10 01:25:30;;;;;;;;;43.50;41.00;;;;;3.34;71.42;100095.78;6148594;23;45527;-82
2022/12/10 01:27:55;;;;;;;;;59.25;45.25;;;;;3.47;71.68;100126.22;6149589;23;45616;-79
2022/12/10 01:33:42;;;;;;;;;59.00;48.25;;;;;3.50;71.53;100115.75;6149091;23;46070;-79
2022/12/10 01:36:10;;;;;;;;;51.25;44.25;;;;;3.56;71.47;100118.03;6148896;23;45585;-82
2022/12/10 01:38:35;;;;;;;;;63.00;46.50;;;;;3.59;71.36;100131.66;6149213;23;45809;-79
2022/12/10 01:41:01;;;;;;;;;50.00;45.00;;;;;3.58;71.67;100131.72;6149458;23;45577;-80
2022/12/10 01:43:29;;;;;;;;;51.75;44.75;;;;;3.58;71.50;100134.31;6148017;23;45982;-79
2022/12/10 01:49:20;;;;;;;;;48.75;42.50;;;;;3.54;71.33;100136.22;6149287;23;45668;-80
2022/12/10 01:51:50;;;;;;;;;46.75;32.75;;;;;3.59;71.51;100151.53;6148545;23;46479;-81
2022/12/10 01:54:20;;;;;;;;;45.75;43.00;;;;;3.57;71.54;100149.00;6122415;23;47619;-80
2022/12/10 01:56:51;;;;;;;;;49.25;34.75;;;;;3.46;71.84;100140.94;6122218;23;45539;-78
2022/12/10 01:59:17;;;;;;;;;53.00;40.50;;;;;3.57;71.73;100156.78;6149007;23;45521;-78
2022/12/10 02:02:05;;;;;;;;;57.25;43.25;;;;;3.57;71.78;100161.94;6149113;23;45471;-80
2022/12/10 02:04:48;;;;;;;;;47.25;40.25;;;;;3.60;71.58;100163.56;6148843;23;45582;-81
2022/12/10 02:07:27;;;;;;;;;46.25;39.50;;;;;3.55;71.53;100145.66;6148357;23;45358;-81
2022/12/10 02:10:02;;;;;;;;;45.75;43.75;;;;;3.65;71.40;100167.59;6149124;23;45600;-82
2022/12/10 02:12:53;;;;;;;;;55.50;46.00;;;;;3.67;71.40;100163.16;6148530;23;46509;-80
2022/12/10 02:15:24;;;;;;;;;48.50;41.00;;;;;3.68;71.39;100170.03;6148793;23;46528;-79
2022/12/10 02:17:57;;;;;;;;;49.50;41.75;;;;;3.52;71.46;100142.38;6121801;23;45815;-81
2022/12/10 02:20:26;;;;;;;;;47.75;42.25;;;;;3.69;71.58;100163.09;6149327;23;45582;-80
2022/12/10 02:23:00;;;;;;;;;46.25;41.50;;;;;3.58;71.65;100149.84;6149376;23;46460;-80
2022/12/10 02:25:37;;;;;;;;;53.00;43.00;;;;;3.70;71.32;100180.31;6148702;23;46206;-81
2022/12/10 02:28:17;;;;;;;;;38.50;37.50;;;;;3.46;71.52;100143.50;6148390;23;45707;-81
2022/12/10 02:30:45;;;;;;;;;49.75;43.75;;;;;3.60;71.51;100169.59;6149270;23;45720;-81
2022/12/10 02:33:13;;;;;;;;;51.75;40.25;;;;;3.46;71.91;100148.69;6123592;23;47484;-82
2022/12/10 02:35:41;;;;;;;;;49.50;35.75;;;;;3.57;71.61;100163.69;6150209;23;45939;-81
2022/12/10 02:38:29;;;;;;;;;45.00;37.00;;;;;3.67;71.65;100176.13;6150881;23;45664;-79
2022/12/10 02:41:04;;;;;;;;;49.75;36.00;;;;;3.70;71.40;100178.56;6151807;23;45538;-82
2022/12/10 02:43:32;;;;;;;;;53.25;41.25;;;;;3.73;71.31;100180.16;6151297;23;47256;-81
2022/12/10 02:46:00;;;;;;;;;48.25;41.00;;;;;3.50;71.56;100146.81;6149670;23;46490;-81
2022/12/10 02:48:26;;;;;;;;;41.00;36.75;;;;;3.67;71.54;100172.72;6150284;23;45569;-81
2022/12/10 02:50:52;;;;;;;;;46.00;39.00;;;;;3.78;71.39;100189.38;6150682;23;45659;-81
2022/12/10 02:53:17;;;;;;;;;35.75;32.50;;;;;3.77;71.62;100187.72;6150039;23;45681;-82
2022/12/10 02:55:52;;;;;;;;;43.50;36.75;;;;;3.62;71.36;100157.38;6149980;23;45696;-80
2022/12/10 02:58:34;;;;;;;;;41.25;33.25;;;;;3.76;71.49;100191.22;6150489;23;45533;-82
2022/12/10 03:01:29;;;;;;;;;24.00;20.00;;;;;3.75;71.51;100179.19;6150267;23;45602;-80
2022/12/10 03:04:28;;;;;;;;;42.00;35.25;;;;;3.66;71.26;100169.28;6150484;23;45690;-82
2022/12/10 03:07:00;;;;;;;;;45.50;33.25;;;;;3.75;71.86;100184.34;6122566;23;47158;-81
2022/12/10 03:09:34;;;;;;;;;44.25;37.00;;;;;3.69;71.39;100169.13;6123377;23;45881;-81
2022/12/10 03:12:07;;;;;;;;;36.25;34.75;;;;;3.73;71.64;100172.38;6150295;23;45689;-80
2022/12/10 03:14:34;;;;;;;;;34.50;28.75;;;;;3.71;71.40;100172.47;6148990;23;46555;-82
2022/12/10 03:17:02;;;;;;;;;41.00;32.50;;;;;3.74;71.57;100163.69;6149107;23;45956;-79
2022/12/10 03:19:40;;;;;;;;;41.25;32.50;;;;;3.74;71.39;100167.13;6150389;23;45512;-78
2022/12/10 03:22:08;;;;;;;;;40.25;34.25;;;;;3.80;71.17;100177.19;6149883;23;45545;-79
2022/12/10 03:24:35;;;;;;;;;37.75;33.50;;;;;3.74;71.59;100172.31;6149587;23;46461;-81
2022/12/10 03:27:03;;;;;;;;;30.75;27.75;;;;;3.78;71.46;100183.34;6149818;23;45981;-79
2022/12/10 03:29:34;;;;;;;;;40.00;29.75;;;;;3.81;71.35;100188.41;6150575;23;45466;-81
2022/12/10 03:32:01;;;;;;;;;36.00;31.00;;;;;3.83;71.44;100183.16;6150472;23;45494;-78
2022/12/10 03:34:27;;;;;;;;;41.75;31.50;;;;;3.83;71.45;100191.75;6123130;23;47724;-80
2022/12/10 03:36:53;;;;;;;;;31.00;23.25;;;;;3.85;71.92;100189.91;6149120;23;45985;-81
2022/12/10 03:39:19;;;;;;;;;38.75;31.50;;;;;3.87;71.39;100192.44;6150195;23;45632;-80
2022/12/10 03:41:45;;;;;;;;;31.00;24.25;;;;;3.88;71.27;100191.53;6123225;23;45694;-79
2022/12/10 03:44:10;;;;;;;;;35.25;29.75;;;;;3.91;71.19;100191.34;6149980;23;46621;-80
2022/12/10 03:46:36;;;;;;;;;35.25;27.75;;;;;3.91;71.25;100193.94;6149870;23;46059;-80
2022/12/10 03:49:02;;;;;;;;;34.50;27.75;;;;;3.92;71.32;100195.63;6124255;23;45639;-81
2022/12/10 03:51:28;;;;;;;;;37.25;32.75;;;;;3.93;70.96;100190.38;6150060;23;45502;-81
2022/12/10 03:53:53;;;;;;;;;42.25;29.25;;;;;3.93;70.96;100197.31;6149371;23;47359;-80
2022/12/10 03:56:20;;;;;;;;;36.75;26.25;;;;;3.93;71.22;100202.50;6149400;23;45625;-80
2022/12/10 03:58:46;;;;;;;;;34.00;28.25;;;;;3.89;71.20;100185.44;6149914;23;45429;-81
2022/12/10 04:01:12;;;;;;;;;34.75;30.50;;;;;3.92;70.99;100206.84;6150515;23;45582;-80
2022/12/10 04:03:39;;;;;;;;;31.25;27.00;;;;;3.87;71.06;100202.78;6150051;23;45513;-81
2022/12/10 04:06:16;;;;;;;;;29.00;23.75;;;;;3.87;70.91;100201.03;6150007;23;45710;-81
2022/12/10 04:08:43;;;;;;;;;31.75;25.75;;;;;3.90;70.99;100213.84;6123356;23;45501;-81
2022/12/10 04:11:10;;;;;;;;;30.50;28.00;;;;;3.86;70.94;100203.72;6149984;23;45731;-80
2022/12/10 04:16:30;;;;;;;;;36.00;27.25;;;;;3.88;70.90;100217.44;6149833;23;46342;-79
2022/12/10 04:19:07;;;;;;;;;26.00;26.00;;;;;3.83;70.80;100199.53;6123388;23;45481;-79
2022/12/10 04:27:13;;;;;;;;;33.00;26.25;;;;;3.86;71.21;100201.97;6149546;23;46188;-81
2022/12/10 04:29:39;;;;;;;;;27.50;23.25;;;;;3.87;70.49;100207.97;6123138;23;46322;-80
2022/12/10 04:32:05;;;;;;;;;30.25;24.25;;;;;3.88;70.28;100210.50;6150215;23;45585;-80
2022/12/10 04:34:31;;;;;;;;;25.50;23.75;;;;;3.84;70.19;100205.53;6149773;23;46347;-80
2022/12/10 04:37:00;;;;;;;;;26.25;24.00;;;;;3.74;70.03;100199.97;6122586;23;46622;-80
2022/12/10 04:39:26;;;;;;;;;30.50;24.50;;;;;3.85;70.52;100213.22;6150137;23;45528;-79
2022/12/10 04:41:52;;;;;;;;;33.25;26.00;;;;;3.89;70.31;100216.53;6149629;23;45941;-80
2022/12/10 04:44:18;;;;;;;;;26.25;23.25;;;;;3.90;70.18;100229.38;6149745;23;45573;-81
2022/12/10 04:46:45;;;;;;;;;23.50;18.50;;;;;3.93;70.55;100229.25;6122450;23;46339;-81
2022/12/10 04:49:11;;;;;;;;;26.25;22.75;;;;;3.81;70.30;100209.13;6149780;23;45460;-81
2022/12/10 04:51:36;;;;;;;;;23.50;21.50;;;;;3.87;70.42;100219.19;6150581;23;45529;-79
2022/12/10 04:54:03;;;;;;;;;29.75;23.00;;;;;3.81;70.40;100211.72;6150356;23;46614;-79
2022/12/10 04:56:29;;;;;;;;;21.50;12.50;;;;;3.65;70.36;100182.31;6149624;23;46501;-80
2022/12/10 04:58:56;;;;;;;;;30.25;23.25;;;;;3.88;70.23;100227.78;6150687;23;45562;-80
2022/12/10 05:01:22;;;;;;;;;26.25;21.00;;;;;3.76;70.05;100206.75;6150216;23;45592;-81
2022/12/10 05:03:47;;;;;;;;;29.00;20.50;;;;;3.87;69.96;100213.16;6149183;23;46514;-81
2022/12/10 05:06:15;;;;;;;;;29.25;23.00;;;;;3.92;69.47;100232.75;6149295;23;45822;-81
2022/12/10 05:08:41;;;;;;;;;22.50;17.75;;;;;3.90;69.80;100221.59;6149910;23;45838;-79
2022/12/10 05:11:11;;;;;;;;;20.00;16.00;;;;;3.95;69.50;100223.97;6150071;23;45532;-80
2022/12/10 05:13:37;;;;;;;;;26.00;22.00;;;;;3.88;69.62;100209.66;6149375;23;46695;-79
2022/12/10 05:16:05;;;;;;;;;22.25;16.50;;;;;3.99;69.24;100230.69;6122447;23;46041;-79
2022/12/10 05:24:37;;;;;;;;;19.25;13.00;;;;;3.88;68.92;100210.50;6149490;23;46075;-80
2022/12/10 05:27:03;;;;;;;;;18.00;16.00;;;;;3.97;68.74;100223.00;6149681;23;46151;-80
2022/12/10 05:29:28;;;;;;;;;13.50;13.00;;;;;3.96;68.99;100231.66;6150224;23;45570;-80
2022/12/10 05:31:54;;;;;;;;;20.00;16.00;;;;;3.97;68.68;100229.91;6150265;23;45577;-79
2022/12/10 05:34:19;;;;;;;;;15.00;14.50;;;;;3.98;68.63;100235.03;6149373;23;45996;-81
2022/12/10 05:36:45;;;;;;;;;21.50;17.25;;;;;3.98;68.46;100244.56;6149267;23;45562;-79
2022/12/10 05:39:11;;;;;;;;;22.00;22.00;;;;;3.91;68.47;100235.41;6149457;23;45485;-79
2022/12/10 05:41:38;;;;;;;;;21.00;18.50;;;;;3.77;68.57;100205.00;6149706;23;45545;-79
2022/12/10 05:44:04;;;;;;;;;24.50;20.50;;;;;3.96;68.60;100244.63;6149076;23;45577;-80
2022/12/10 05:49:16;;;;;;;;;24.75;21.25;;;;;3.95;68.53;100247.28;6149315;23;45475;-80
2022/12/10 05:51:41;;;;;;;;;20.50;17.75;;;;;3.98;68.33;100250.59;6148956;23;45362;-80
2022/12/10 05:54:08;;;;;;;;;26.75;20.00;;;;;3.97;68.55;100259.28;6149596;23;45807;-79
2022/12/10 05:56:35;;;;;;;;;20.25;17.00;;;;;3.63;68.42;100204.84;6148152;23;46831;-79
2022/12/10 05:59:02;;;;;;;;;22.75;18.25;;;;;3.96;68.74;100264.50;6122681;23;45730;-81
2022/12/10 06:01:33;;;;;;;;;20.00;10.25;;;;;3.94;68.66;100266.38;6149663;23;45586;-79
2022/12/10 06:04:00;;;;;;;;;19.75;16.75;;;;;3.95;68.68;100257.66;6148716;23;45491;-81
2022/12/10 06:06:28;;;;;;;;;22.25;18.75;;;;;3.93;68.64;100254.31;6149260;23;46208;-80
2022/12/10 06:08:54;;;;;;;;;27.25;20.50;;;;;3.98;68.60;100273.06;6149716;23;45846;-78
2022/12/10 06:11:20;;;;;;;;;20.00;14.50;;;;;4.00;68.99;100255.66;6122365;23;45668;-77
2022/12/10 06:16:20;;;;;;;;;19.25;16.75;;;;;4.06;68.33;100266.56;6117310;23;46226;-76
2022/12/10 06:18:46;;;;;;;;;26.75;21.25;;;;;3.99;68.29;100260.03;6145533;23;45712;-77
2022/12/10 06:21:16;;;;;;;;;23.00;19.25;;;;;4.09;68.47;100268.19;6146388;23;45942;-76
2022/12/10 06:23:42;;;;;;;;;23.50;20.50;;;;;4.11;68.44;100272.38;6146248;23;45642;-76
2022/12/10 06:26:16;;;;;;;;;23.00;20.25;;;;;4.13;68.61;100282.66;6144386;23;46158;-75
2022/12/10 06:28:44;;;;;;;;;19.25;18.25;;;;;4.10;68.38;100283.66;6145598;23;45980;-76
2022/12/10 06:31:09;;;;;;;;;28.00;20.50;;;;;4.13;68.41;100275.72;6145610;23;45881;-76
2022/12/10 06:33:35;;;;;;;;;21.50;17.25;;;;;4.14;68.41;100282.59;6144931;23;46552;-75
2022/12/10 06:36:07;;;;;;;;;21.00;18.00;;;;;4.19;68.27;100298.75;6145024;23;46469;-76
2022/12/10 06:38:33;;;;;;;;;24.00;17.25;;;;;4.16;68.25;100285.94;6145575;23;45513;-76
2022/12/10 06:40:59;;;;;;;;;24.75;18.00;;;;;4.17;67.93;100295.41;6146183;23;45503;-77
2022/12/10 06:43:24;;;;;;;;;19.00;17.25;;;;;4.09;68.05;100282.00;6146026;23;46155;-76
2022/12/10 06:45:49;;;;;;;;;22.75;17.75;;;;;4.09;68.38;100292.34;6144471;23;45915;-77
2022/12/10 06:48:15;;;;;;;;;20.50;17.50;;;;;4.17;68.27;100298.00;6145623;23;45558;-77
2022/12/10 06:50:41;;;;;;;;;27.50;18.25;;;;;4.20;68.45;100297.84;6145406;23;45573;-75
2022/12/10 06:53:06;;;;;;;;;29.25;19.50;;;;;4.13;68.35;100291.28;6145240;23;46563;-76
2022/12/10 06:55:32;;;;;;;;;23.00;19.00;;;;;4.20;68.31;100305.63;6144200;23;46272;-77
2022/12/10 06:57:57;;;;;;;;;19.75;17.25;;;;;4.12;67.87;100299.97;6144541;23;46091;-76
2022/12/10 07:00:23;;;;;;;;;19.00;16.25;;;;;4.14;68.04;100294.72;6143711;23;45649;-78
2022/12/10 07:02:48;;;;;;;;;19.75;19.25;;;;;4.13;67.80;100293.88;6143677;23;46351;-78
2022/12/10 07:05:14;;;;;;;;;21.00;17.00;;;;;4.21;68.08;100312.47;6143988;23;45772;-77
2022/12/10 07:07:39;;;;;;;;;19.75;18.25;;;;;4.23;67.87;100321.03;6143937;23;45585;-78
2022/12/10 07:10:06;;;;;;;;;21.25;17.00;;;;;4.29;68.01;100321.63;6144451;23;45728;-77
2022/12/10 07:12:31;;;;;;;;;20.50;14.75;;;;;4.24;67.55;100319.25;6143777;23;46617;-78
2022/12/10 07:14:56;;;;;;;;;20.75;16.75;;;;;4.29;67.99;100329.41;6117833;23;47670;-77
2022/12/10 07:17:22;;;;;;;;;18.50;16.00;;;;;4.25;67.86;100322.69;6144827;23;45746;-77
2022/12/10 07:19:47;;;;;;;;;19.75;16.50;;;;;4.32;67.80;100324.91;6146369;23;45611;-78
2022/12/10 07:22:12;;;;;;;;;22.50;19.25;;;;;4.29;67.59;100324.22;6147326;23;45919;-82
2022/12/10 07:24:38;;;;;;;;;23.50;15.75;;;;;4.23;67.70;100323.63;6145668;23;46209;-75
2022/12/10 07:27:07;;;;;;;;;15.50;13.00;;;;;4.34;68.01;100343.81;6146421;23;45754;-78
2022/12/10 07:29:33;;;;;;;;;20.50;17.00;;;;;4.35;68.03;100347.25;6148126;23;45889;-77
2022/12/10 07:31:58;;;;;;;;;23.00;14.00;;;;;4.34;67.73;100346.41;6145872;23;45609;-77
2022/12/10 07:34:23;;;;;;;;;25.75;18.75;;;;;4.32;67.58;100350.00;6144533;23;45918;-75
2022/12/10 07:36:49;;;;;;;;;23.75;20.50;;;;;4.30;67.76;100351.84;6145513;23;45581;-77
2022/12/10 07:39:17;;;;;;;;;12.00;5.50;;;;;4.30;67.38;100347.50;6147369;23;45648;-76
2022/12/10 07:41:53;;;;;;;;;21.50;14.00;;;;;4.31;67.71;100348.31;6146192;23;46312;-77
2022/12/10 07:44:23;;;;;;;;;19.25;17.50;;;;;4.32;67.75;100353.41;6119637;23;46197;-77
2022/12/10 07:46:50;;;;;;;;;23.25;17.00;;;;;4.28;67.52;100340.69;6118111;23;45863;-76
2022/12/10 07:49:17;;;;;;;;;17.50;15.00;;;;;4.33;67.58;100352.50;6120060;23;46014;-77
2022/12/10 07:51:46;;;;;;;;;21.00;17.25;;;;;4.39;67.96;100361.75;6147074;23;45716;-77
2022/12/10 07:54:12;;;;;;;;;24.00;17.00;;;;;4.33;67.57;100352.50;6145190;23;46877;-78
2022/12/10 07:56:38;;;;;;;;;17.00;15.00;;;;;4.42;67.69;100365.03;6146096;23;46032;-76
2022/12/10 07:59:03;;;;;;;;;20.50;17.00;;;;;4.43;67.57;100364.09;6119465;23;45951;-75
2022/12/10 08:01:28;;;;;;;;;27.50;17.50;;;;;4.46;67.56;100365.72;6145741;23;47132;-76
2022/12/10 08:03:56;;;;;;;;;17.25;16.00;;;;;4.47;67.58;100367.41;6146975;23;46042;-76
2022/12/10 08:06:22;;;;;;;;;21.75;16.00;;;;;4.47;67.59;100365.66;6145624;23;46230;-77
2022/12/10 08:08:49;;;;;;;;;23.00;15.25;;;;;4.48;67.57;100369.09;6145539;23;45739;-78
2022/12/10 08:11:16;;;;;;;;;21.25;17.50;;;;;4.53;67.53;100369.69;6145367;23;46536;-74
2022/12/10 08:13:42;;;;;;;;;24.75;18.25;;;;;4.54;67.49;100369.59;6147019;23;46171;-81
2022/12/10 08:16:14;;;;;;;;;19.75;19.00;;;;;4.58;67.07;100370.28;6143643;23;45592;-76
2022/12/10 08:18:41;;;;;;;;;22.50;19.75;;;;;4.59;67.15;100384.91;6146180;23;45522;-77
2022/12/10 08:21:12;;;;;;;;;23.25;18.75;;;;;4.62;67.21;100387.38;6144936;23;47293;-78
2022/12/10 08:23:38;;;;;;;;;23.75;19.00;;;;;4.61;67.19;100404.69;6146782;23;46165;-78
2022/12/10 08:26:06;;;;;;;;;23.75;19.00;;;;;4.51;67.13;100387.91;6145548;23;45885;-78
2022/12/10 08:28:32;;;;;;;;;24.50;20.50;;;;;4.59;67.04;100405.66;6145840;23;46214;-76
2022/12/10 08:30:57;;;;;;;;;22.75;17.50;;;;;4.52;67.57;100399.13;6144996;23;47353;-77
2022/12/10 08:33:23;;;;;;;;;20.25;16.50;;;;;4.54;67.23;100395.53;6145396;23;47189;-79
2022/12/10 08:35:48;;;;;;;;;24.50;17.75;;;;;4.61;67.52;100411.63;6142163;23;45653;-76
2022/12/10 08:38:13;;;;;;;;;20.50;16.00;;;;;4.63;67.08;100402.03;6144854;23;45545;-77
2022/12/10 08:40:40;;;;;;;;;21.50;15.00;;;;;4.67;67.54;100407.91;6117529;23;48499;-76
2022/12/10 08:43:07;;;;;;;;;17.00;14.00;;;;;4.72;67.22;100417.13;6144617;23;46078;-76
2022/12/10 08:45:33;;;;;;;;;17.00;15.00;;;;;4.69;66.99;100413.88;6143424;23;45945;-78
2022/12/10 08:47:58;;;;;;;;;20.75;17.25;;;;;4.65;67.02;100407.97;6145051;23;45560;-75
2022/12/10 08:50:24;;;;;;;;;21.00;14.25;;;;;4.71;66.82;100419.78;6146041;23;45497;-77
2022/12/10 08:52:49;;;;;;;;;23.25;17.75;;;;;4.72;67.02;100411.94;6119074;23;47020;-74
2022/12/10 08:55:14;;;;;;;;;20.00;16.50;;;;;4.73;67.13;100416.22;6144967;23;45725;-76
2022/12/10 08:57:40;;;;;;;;;17.75;14.50;;;;;4.73;66.66;100425.75;6145681;23;45558;-77
2022/12/10 09:00:06;;;;;;;;;14.75;14.50;;;;;4.72;66.84;100419.72;6145931;23;47154;-77
2022/12/10 09:02:32;;;;;;;;;20.00;14.75;;;;;4.67;66.98;100424.31;6145872;23;46121;-75
2022/12/10 09:04:57;;;;;;;;;16.75;14.50;;;;;4.73;67.07;100431.78;6143175;23;45707;-79
2022/12/10 09:07:23;;;;;;;;;21.50;16.75;;;;;4.59;66.71;100400.47;6119271;23;46138;-76
2022/12/10 09:09:48;;;;;;;;;17.25;15.00;;;;;4.78;66.78;100436.75;6145138;23;46231;-74
2022/12/10 09:12:13;;;;;;;;;21.00;15.50;;;;;4.79;66.61;100441.03;6145052;23;45676;-76
2022/12/10 09:14:40;;;;;;;;;29.00;19.50;;;;;4.68;66.45;100425.16;6145370;23;45510;-80
2022/12/10 09:17:06;;;;;;;;;19.25;16.50;;;;;4.76;66.53;100439.41;6117931;23;45748;-76
2022/12/10 09:19:31;;;;;;;;;19.50;17.00;;;;;4.78;66.42;100445.38;6118778;23;48286;-76
2022/12/10 09:21:56;;;;;;;;;22.25;20.00;;;;;4.82;66.28;100449.47;6144899;23;46326;-76
2022/12/10 09:24:22;;;;;;;;;19.50;15.25;;;;;4.84;66.06;100454.59;6118457;23;45565;-76
2022/12/10 09:26:47;;;;;;;;;22.50;17.75;;;;;4.86;66.53;100452.78;6145127;23;45727;-75
2022/12/10 09:29:13;;;;;;;;;18.25;16.00;;;;;4.84;66.66;100439.88;6145516;23;47359;-75
2022/12/10 09:31:38;;;;;;;;;26.25;16.50;;;;;4.83;66.29;100445.13;6116116;23;45856;-76
2022/12/10 09:34:04;;;;;;;;;19.50;17.50;;;;;4.90;66.50;100447.34;6143806;23;46148;-76
2022/12/10 09:36:30;;;;;;;;;19.25;16.50;;;;;4.90;65.78;100442.16;6145493;23;45537;-76
2022/12/10 09:38:56;;;;;;;;;19.25;17.50;;;;;4.94;66.13;100455.81;6145394;23;46388;-76
2022/12/10 09:41:42;;;;;;;;;18.25;16.00;;;;;4.92;66.00;100448.09;6144097;23;46087;-75
2022/12/10 09:44:34;;;;;;;;;23.00;16.00;;;;;4.94;65.62;100448.03;6145299;23;45600;-78
2022/12/10 09:47:03;;;;;;;;;14.75;14.00;;;;;4.93;65.64;100449.78;6118175;23;45994;-77
2022/12/10 09:50:06;;;;;;;;;21.50;16.25;;;;;4.97;65.82;100456.50;6119764;23;46610;-77
2022/12/10 09:52:42;;;;;;;;;28.00;18.50;;;;;5.00;66.17;100463.31;6145209;23;46588;-75
2022/12/10 09:55:19;;;;;;;;;20.50;18.00;;;;;5.02;66.08;100462.28;6144617;23;45795;-76
2022/12/10 09:57:53;;;;;;;;;24.50;21.00;;;;;5.06;65.68;100476.81;6146031;23;45624;-76
2022/12/10 10:00:33;;;;;;;;;18.00;16.25;;;;;5.06;65.72;100471.63;6144405;23;47206;-75
2022/12/10 10:02:59;;;;;;;;;24.50;18.00;;;;;5.01;66.13;100463.22;6146034;23;45671;-78
2022/12/10 10:05:31;;;;;;;;;28.00;19.25;;;;;5.07;66.20;100465.50;6144753;23;45953;-76
2022/12/10 10:08:02;;;;;;;;;18.50;14.50;;;;;5.08;66.01;100463.75;6145165;23;45774;-76
2022/12/10 10:10:35;;;;;;;;;22.00;20.75;;;;;5.10;65.78;100463.66;6145459;23;46286;-78
2022/12/10 10:13:17;;;;;;;;;28.00;24.00;;;;;5.05;65.60;100438.78;6119619;23;46286;-76
2022/12/10 10:15:44;;;;;;;;;32.25;24.50;;;;;5.17;66.12;100450.31;6145650;23;45807;-76
2022/12/10 10:18:24;;;;;;;;;25.25;21.00;;;;;5.22;65.83;100452.66;6147538;23;45620;-77
2022/12/10 10:20:50;;;;;;;;;28.75;21.00;;;;;5.23;66.04;100459.53;6147041;23;46367;-77
2022/12/10 10:23:16;;;;;;;;;29.75;22.00;;;;;5.25;65.94;100455.09;6145942;23;46519;-78
2022/12/10 10:25:43;;;;;;;;;28.75;19.00;;;;;5.22;65.49;100455.25;6145664;23;45777;-77
2022/12/10 10:28:21;;;;;;;;;22.50;19.50;;;;;5.14;65.77;100439.22;6145463;23;45502;-77
2022/12/10 10:30:47;;;;;;;;;26.00;21.25;;;;;5.20;65.50;100444.94;6142972;23;47252;-76
2022/12/10 10:33:15;;;;;;;;;25.25;21.75;;;;;5.28;65.57;100457.53;6144733;23;46462;-74
2022/12/10 10:35:58;;;;;;;;;32.00;21.50;;;;;5.31;65.70;100457.38;6144325;23;45600;-77
2022/12/10 10:38:27;;;;;;;;;25.25;19.50;;;;;5.32;65.35;100462.50;6145029;23;45668;-77
2022/12/10 10:40:58;;;;;;;;;26.25;23.25;;;;;5.32;65.39;100459.91;6143011;23;48324;-78
2022/12/10 10:43:30;;;;;;;;;24.00;19.00;;;;;5.32;65.27;100465.09;6119603;23;46101;-79
2022/12/10 10:46:06;;;;;;;;;26.50;21.25;;;;;5.29;65.44;100446.25;6143764;23;45687;-78
2022/12/10 10:48:32;;;;;;;;;29.00;23.25;;;;;5.29;65.32;100464.44;6144660;23;46178;-77
2022/12/10 10:51:15;;;;;;;;;20.50;17.75;;;;;5.28;65.26;100468.78;6117521;23;48155;-77
2022/12/10 10:53:50;;;;;;;;;21.75;18.75;;;;;5.21;64.80;100456.19;6146649;23;46539;-77
2022/12/10 10:56:22;;;;;;;;;23.75;22.50;;;;;5.23;65.27;100464.75;6146267;23;45815;-77
2022/12/10 10:59:04;;;;;;;;;22.25;18.00;;;;;5.16;64.91;100452.97;6147256;23;45851;-78
2022/12/10 11:01:50;;;;;;;;;18.00;17.50;;;;;5.21;64.85;100470.00;6146894;23;45931;-77
2022/12/10 11:04:21;;;;;;;;;23.50;19.00;;;;;5.10;64.80;100463.66;6145752;23;46038;-76
2022/12/10 11:06:50;;;;;;;;;21.50;20.50;;;;;5.09;64.85;100473.22;6146202;23;46049;-78
2022/12/10 11:09:28;;;;;;;;;24.25;17.00;;;;;5.07;65.13;100477.66;6145978;23;45824;-78
2022/12/10 11:12:36;;;;;;;;;24.25;17.50;;;;;5.13;64.55;100481.72;6146380;23;45533;-77
2022/12/10 11:15:28;;;;;;;;;21.25;17.75;;;;;5.04;64.38;100467.41;6053528;23;46819;-78
2022/12/10 11:17:55;;;;;;;;;25.00;18.00;;;;;5.03;64.63;100466.56;6055478;23;45928;-77
2022/12/10 11:20:26;;;;;;;;;26.00;20.75;;;;;5.07;64.61;100475.06;6055867;23;45791;-77
2022/12/10 11:22:58;;;;;;;;;21.00;19.25;;;;;5.05;64.33;100471.69;6055396;23;46396;-78
2022/12/10 11:25:56;;;;;;;;;23.75;19.25;;;;;5.04;65.01;100468.25;6054091;23;47133;-79
2022/12/10 11:28:49;;;;;;;;;24.50;19.25;;;;;5.04;65.15;100470.84;6055448;23;45861;-77
2022/12/10 11:31:40;;;;;;;;;25.25;16.75;;;;;5.10;65.28;100468.88;6055662;23;45752;-77
2022/12/10 11:34:43;;;;;;;;;22.00;19.75;;;;;5.14;65.12;100460.00;6029286;23;48817;-79
2022/12/10 11:37:45;;;;;;;;;24.00;20.50;;;;;5.18;65.08;100451.16;6054201;23;46149;-77
2022/12/10 11:40:23;;;;;;;;;25.00;18.00;;;;;5.20;64.95;100450.13;6054050;23;45955;-76
2022/12/10 11:43:11;;;;;;;;;24.25;15.75;;;;;5.21;64.78;100448.38;6053653;23;45612;-78
2022/12/10 11:46:11;;;;;;;;;24.25;19.50;;;;;5.22;64.71;100457.84;6053254;23;45744;-79
2022/12/10 11:48:39;;;;;;;;;21.50;20.75;;;;;5.24;64.69;100458.59;6025491;23;47387;-77
2022/12/10 11:51:11;;;;;;;;;20.00;18.50;;;;;5.18;64.84;100452.00;6030992;23;46032;-78
2022/12/10 11:53:45;;;;;;;;;32.75;22.25;;;;;5.28;64.70;100452.34;6054693;23;45703;-78
2022/12/10 11:56:28;;;;;;;;;29.50;24.25;;;;;5.29;64.54;100456.63;6054477;23;46620;-78
2022/12/10 11:59:01;;;;;;;;;30.25;21.75;;;;;5.33;65.12;100463.34;6055566;23;46183;-77
2022/12/10 12:01:45;;;;;;;;;22.00;21.25;;;;;5.40;64.84;100459.47;6053289;23;45739;-76
2022/12/10 12:04:30;;;;;;;;;21.75;19.25;;;;;5.46;64.65;100459.16;6054761;23;45991;-75
2022/12/10 12:07:16;;;;;;;;;23.75;19.50;;;;;5.50;64.41;100468.50;6053475;23;45870;-77